Time;durP1;ratioP1;P1;durP2;ratioP2;P2;SDS_P1;SDS_P2;PMS_P1;PMS_P2;Temp;Humidity;BMP_temperature;BMP_pressure;BME280_temperature;BME280_humidity;BME280_pressure;Samples;Min_cycle;Max_cycle;Signal;HPM_P1;HPM_P2
2020/12/06 13:12:44;;;;;;;50.92;25.15;;;4.80;99.90;;;;;;5065381;28;20308;-78
2020/12/06 13:15:09;;;;;;;41.60;25.00;;;4.90;99.90;;;;;;5065445;28;20032;-78
2020/12/06 13:17:35;;;;;;;41.58;23.52;;;5.10;99.90;;;;;;5064236;27;20025;-79
2020/12/06 13:20:02;;;;;;;43.35;23.70;;;;;;;;;;5065981;28;20448;-76
2020/12/06 13:22:28;;;;;;;41.40;22.63;;;;;;;;;;5065140;28;20037;-76
2020/12/06 13:24:54;;;;;;;40.72;23.05;;;;;;;;;;5065190;28;20041;-78
2020/12/06 13:27:20;;;;;;;37.95;21.58;;;;;;;;;;5064188;28;20060;-78
2020/12/06 13:29:48;;;;;;;44.45;24.88;;;;;;;;;;5065175;28;20489;-76
2020/12/06 13:32:14;;;;;;;37.90;22.38;;;;;;;;;;5063914;28;20025;-76
2020/12/06 13:34:40;;;;;;;40.40;22.23;;;;;;;;;;5064874;28;20029;-76
2020/12/06 13:37:06;;;;;;;39.85;20.35;;;;;;;;;;5064236;28;20041;-76
2020/12/06 13:39:33;;;;;;;36.53;21.73;;;;;;;;;;5065084;28;20029;-76
2020/12/06 13:41:59;;;;;;;37.30;21.52;;;;;;;;;;5064987;28;20025;-76
2020/12/06 13:44:25;;;;;;;43.88;23.42;;;;;;;;;;5063217;28;20057;-76
2020/12/06 13:46:51;;;;;;;37.95;22.63;;;;;;;;;;5064422;28;20086;-76
2020/12/06 13:49:17;;;;;;;36.63;22.13;;;;;;;;;;5064790;28;20112;-77
2020/12/06 13:51:44;;;;;;;39.58;23.10;;;;;;;;;;5064703;28;20150;-77
2020/12/06 13:54:10;;;;;;;37.35;19.92;;;;;;;;;;5063559;28;20029;-77
2020/12/06 13:56:36;;;;;;;40.65;22.75;;;;;;;;;;5063094;28;20029;-77
2020/12/06 13:59:02;;;;;;;38.00;22.08;;;;;;;;;;5064511;28;20050;-77
2020/12/06 14:01:28;;;;;;;39.47;21.92;;;;;;;;;;5064760;28;20043;-77
2020/12/06 14:03:53;;;;;;;34.58;20.20;;;;;;;;;;5063194;28;20444;-77
2020/12/06 14:06:20;;;;;;;39.97;21.92;;;;;;;;;;5064103;28;20025;-77
2020/12/06 14:08:46;;;;;;;37.65;21.88;;;;;;;;;;5064830;28;20044;-77
2020/12/06 14:11:12;;;;;;;36.05;20.25;;;;;;;;;;5064551;28;20076;-77
2020/12/06 14:13:38;;;;;;;35.15;20.35;;;;;;;;;;5062962;28;20040;-77
2020/12/06 14:16:05;;;;;;;36.33;20.50;;;;;;;;;;5064220;28;20052;-77
2020/12/06 14:18:32;;;;;;;36.78;21.20;;;;;;;;;;5064241;28;20042;-76
2020/12/06 14:20:58;;;;;;;32.50;18.92;;;;;;;;;;5064647;28;20029;-77
2020/12/06 14:23:24;;;;;;;32.85;18.58;;;;;;;;;;5053502;28;20393;-76
2020/12/06 14:25:50;;;;;;;35.28;20.40;;;;;;;;;;5050855;28;20031;-76
2020/12/06 14:28:16;;;;;;;34.45;19.83;;;;;;;;;;5050715;28;20129;-77
2020/12/06 14:30:43;;;;;;;31.83;18.92;;;;;;;;;;5051033;28;20064;-76
2020/12/06 14:33:09;;;;;;;34.83;19.85;;;;;;;;;;5049528;28;20028;-76
2020/12/06 14:35:35;;;;;;;36.08;20.90;;;;;;;;;;5050833;28;20021;-76
2020/12/06 14:38:02;;;;;;;38.38;21.05;;;;;;;;;;5050892;28;20500;-77
2020/12/06 14:40:28;;;;;;;35.20;19.88;;;;;;;;;;5049373;28;20031;-77
2020/12/06 14:42:54;;;;;;;34.83;20.23;;;;;;;;;;5050565;28;20053;-76
2020/12/06 14:45:20;;;;;;;33.08;19.63;;;;;;;;;;5050688;28;20063;-77
2020/12/06 14:47:46;;;;;;;36.22;20.80;;;;;;;;;;5050156;28;20409;-77
2020/12/06 14:50:12;;;;;;;37.30;20.23;;;;;;;;;;5050801;28;20050;-77
2020/12/06 14:52:38;;;;;;;35.65;20.30;;;;;;;;;;5051289;28;20029;-78
2020/12/06 14:55:04;;;;;;;31.27;19.05;;;;;;;;;;5050926;28;20025;-78
2020/12/06 14:57:30;;;;;;;33.55;16.25;;;;;;;;;;5049007;28;20029;-77
2020/12/06 14:59:56;;;;;;;36.40;19.90;;;;;;;;;;5051126;28;20032;-78
2020/12/06 15:02:22;;;;;;;34.40;20.42;;;;;;;;;;5051625;28;20062;-78
2020/12/06 15:04:48;;;;;;;35.45;19.63;;;;;;;;;;5052397;28;20096;-77
2020/12/06 15:07:14;;;;;;;31.23;18.85;;;;;;;;;;5052617;28;20079;-78
2020/12/06 15:09:40;;;;;;;36.90;20.40;;;;;;;;;;5052650;28;20099;-77
2020/12/06 15:12:06;;;;;;;31.90;18.92;;;;;;;;;;5051298;28;20029;-78
2020/12/06 15:14:32;;;;;;;34.15;17.33;;;;;;;;;;5050719;28;20404;-77
2020/12/06 15:16:58;;;;;;;32.65;18.77;;;;;;;;;;5050730;28;20134;-78
2020/12/06 15:19:24;;;;;;;26.25;14.20;;;;;;;;;;5050166;28;20114;-77
2020/12/06 15:21:50;;;;;;;29.80;16.27;;;;;;;;;;5052142;28;20029;-78
2020/12/06 15:24:16;;;;;;;31.88;19.05;;;;;;;;;;5044974;28;20531;-79
2020/12/06 15:26:42;;;;;;;34.88;19.23;;;;;;;;;;5039000;28;20515;-78
2020/12/06 15:29:08;;;;;;;31.90;18.15;;;;;;;;;;5038867;28;20378;-78
2020/12/06 15:31:34;;;;;;;31.27;18.10;;;;;;;;;;5040164;28;20070;-78
2020/12/06 15:34:02;;;;;;;32.10;18.55;;;;;;;;;;5036811;28;20033;-78
2020/12/06 15:36:28;;;;;;;30.52;17.17;;;;;;;;;;5038891;28;20024;-78
2020/12/06 15:38:54;;;;;;;31.88;18.60;;;;;;;;;;5043238;28;20385;-79
2020/12/06 15:41:20;;;;;;;33.20;18.33;;;;;;;;;;5043196;28;20026;-79
2020/12/06 15:43:47;;;;;;;30.70;17.95;;;;;;;;;;5042417;28;20032;-78
2020/12/06 15:46:14;;;;;;;33.10;18.48;;;;;;;;;;5038767;28;20045;-77
2020/12/06 15:48:41;;;;;;;29.42;17.45;;;;;;;;;;5038171;28;20029;-77
2020/12/06 15:51:10;;;;;;;32.60;18.48;;;;;;;;;;5039519;28;20055;-81
2020/12/06 15:53:37;;;;;;;24.98;15.05;;;;;;;;;;5031755;27;20065;-77
2020/12/06 15:56:05;;;;;;;27.85;16.17;;;;;;;;;;5038075;28;20047;-76
2020/12/06 15:58:31;;;;;;;30.48;16.60;;;;;;;;;;5034659;28;20026;-77
2020/12/06 16:00:58;;;;;;;30.13;17.00;;;;;;;;;;5035288;28;20134;-78
2020/12/06 16:03:24;;;;;;;33.83;19.83;;;;;;;;;;5034668;28;20022;-76
2020/12/06 16:05:50;;;;;;;32.83;18.95;;;;;;;;;;5035433;28;20161;-76
2020/12/06 16:08:16;;;;;;;30.58;18.58;;;5.10;99.90;;;;;;5035148;28;20057;-78
2020/12/06 16:10:42;;;;;;;34.08;18.75;;;;;;;;;;5041367;28;20109;-78
2020/12/06 16:13:08;;;;;;;32.28;18.75;;;;;;;;;;5037585;28;20498;-78
2020/12/06 16:15:34;;;;;;;37.63;19.33;;;;;;;;;;5036756;28;20592;-78
2020/12/06 16:18:00;;;;;;;31.48;18.17;;;;;;;;;;5037663;28;20516;-78
2020/12/06 16:20:27;;;;;;;37.13;20.98;;;;;;;;;;5034429;28;20032;-77
2020/12/06 16:22:53;;;;;;;33.05;20.55;;;;;;;;;;5032474;28;20560;-77
2020/12/06 16:25:19;;;;;;;34.90;19.35;;;;;;;;;;5034318;28;20045;-77
2020/12/06 16:27:45;;;;;;;33.03;21.08;;;;;;;;;;5033128;28;20021;-77
2020/12/06 16:30:11;;;;;;;31.17;19.63;;;;;;;;;;5034935;28;20021;-77
2020/12/06 16:32:37;;;;;;;36.53;21.63;;;;;;;;;;5035764;28;20034;-77
2020/12/06 16:35:03;;;;;;;36.22;20.40;;;;;;;;;;5033639;28;20194;-77
2020/12/06 16:37:29;;;;;;;32.92;21.45;;;;;;;;;;5034425;28;20337;-78
2020/12/06 16:39:55;;;;;;;32.67;21.17;;;;;;;;;;5035901;28;20440;-78
2020/12/06 16:42:21;;;;;;;34.05;19.00;;;;;;;;;;5036845;28;20089;-78
2020/12/06 16:44:47;;;;;;;32.42;19.08;;;;;;;;;;5035031;28;20036;-78
2020/12/06 16:47:13;;;;;;;31.77;18.90;;;;;;;;;;5034800;28;20057;-78
2020/12/06 16:49:49;;;;;;;34.90;20.60;;;;;;;;;;5036870;28;20053;-78
2020/12/06 16:52:16;;;;;;;33.38;19.85;;;;;;;;;;5037135;28;20056;-78
2020/12/06 16:54:43;;;;;;;35.70;21.00;;;;;;;;;;5035208;28;20057;-78
2020/12/06 16:57:09;;;;;;;37.95;21.40;;;;;;;;;;5035464;28;20468;-77
2020/12/06 16:59:35;;;;;;;38.90;23.13;;;;;;;;;;5034637;28;20018;-78
2020/12/06 17:02:01;;;;;;;39.40;23.35;;;;;;;;;;5035187;28;20065;-77
2020/12/06 17:04:27;;;;;;;40.42;23.30;;;;;;;;;;5034869;27;20508;-77
2020/12/06 17:06:54;;;;;;;36.65;22.23;;;;;;;;;;5034036;28;20090;-77
2020/12/06 17:09:20;;;;;;;34.75;20.67;;;;;;;;;;5035007;28;20029;-77
2020/12/06 17:11:46;;;;;;;37.65;19.88;;;;;;;;;;5032941;28;20053;-78
2020/12/06 17:14:12;;;;;;;34.92;20.38;;;;;;;;;;5034175;28;20017;-77
2020/12/06 17:16:38;;;;;;;38.00;21.08;;;;;;;;;;5035367;28;20026;-77
2020/12/06 17:19:04;;;;;;;37.15;20.77;;;;;;;;;;5033803;28;20033;-77
2020/12/06 17:21:30;;;;;;;38.47;20.75;;;;;;;;;;5035814;28;20029;-77
2020/12/06 17:23:56;;;;;;;35.10;20.50;;;;;;;;;;5044772;27;20349;-78
2020/12/06 17:26:22;;;;;;;37.28;21.08;;;;;;;;;;5037082;28;20032;-78
2020/12/06 17:28:48;;;;;;;36.75;21.25;;;;;;;;;;5037348;28;20037;-78
2020/12/06 17:31:14;;;;;;;37.15;21.45;;;;;;;;;;5036281;28;20025;-77
2020/12/06 17:33:40;;;;;;;35.58;21.42;;;;;;;;;;5045890;28;20025;-77
2020/12/06 17:36:06;;;;;;;37.97;22.15;;;;;;;;;;5045114;28;20029;-77
2020/12/06 17:38:32;;;;;;;42.55;23.25;;;;;;;;;;5044249;28;20036;-77
2020/12/06 17:40:58;;;;;;;44.30;24.88;;;;;;;;;;5044145;28;20024;-77
2020/12/06 17:43:24;;;;;;;39.13;21.67;;;;;;;;;;5044636;28;20033;-77
2020/12/06 17:45:50;;;;;;;41.15;22.67;;;;;;;;;;5043545;28;20030;-77
2020/12/06 17:48:16;;;;;;;40.83;22.27;;;;;;;;;;5043377;28;20033;-77
2020/12/06 17:50:44;;;;;;;36.63;22.40;;;;;;;;;;5044010;28;20532;-77
2020/12/06 17:53:10;;;;;;;36.95;22.20;;;;;;;;;;5042841;28;20021;-77
2020/12/06 17:55:36;;;;;;;38.17;22.35;;;;;;;;;;5044129;28;20033;-77
2020/12/06 17:58:02;;;;;;;39.28;22.08;;;;;;;;;;5045062;28;20043;-77
2020/12/06 18:00:28;;;;;;;38.13;21.60;;;;;;;;;;5043232;28;20038;-76
2020/12/06 18:02:54;;;;;;;40.03;22.25;;;;;;;;;;5036200;28;20030;-76
2020/12/06 18:05:20;;;;;;;45.67;23.15;;;;;;;;;;5035657;28;20052;-77
2020/12/06 18:07:46;;;;;;;41.35;21.95;;;;;;;;;;5037293;28;20042;-77
2020/12/06 18:10:12;;;;;;;44.67;22.88;;;;;;;;;;5033976;28;20025;-77
2020/12/06 18:12:38;;;;;;;41.28;23.02;;;;;;;;;;5037645;28;20038;-77
2020/12/06 18:15:05;;;;;;;40.22;22.23;;;;;;;;;;5035878;28;20516;-76
2020/12/06 18:17:31;;;;;;;42.95;22.45;;;;;;;;;;5037262;28;20029;-76
2020/12/06 18:19:57;;;;;;;44.08;23.70;;;;;;;;;;5037130;28;20166;-76
2020/12/06 18:22:23;;;;;;;40.75;22.80;;;;;;;;;;5036293;28;20026;-76
2020/12/06 18:24:49;;;;;;;44.20;25.25;;;;;;;;;;5029569;28;20381;-76
2020/12/06 18:27:15;;;;;;;45.03;24.38;;;;;;;;;;5030415;28;20038;-77
2020/12/06 18:29:41;;;;;;;41.40;22.52;;;;;;;;;;5029940;28;20033;-76
2020/12/06 18:32:07;;;;;;;44.50;25.00;;;;;;;;;;5027900;28;20034;-76
2020/12/06 18:34:33;;;;;;;47.25;24.15;;;;;;;;;;5030564;28;20037;-77
2020/12/06 18:36:59;;;;;;;48.78;26.42;;;;;;;;;;5060961;28;20070;-76
2020/12/06 18:39:26;;;;;;;48.05;25.23;;;;;;;;;;5047393;28;20021;-76
2020/12/06 18:41:52;;;;;;;46.80;24.50;;;;;;;;;;5047714;28;20064;-76
2020/12/06 18:44:18;;;;;;;44.92;24.80;;;;;;;;;;5047354;28;20064;-76
2020/12/06 18:46:44;;;;;;;45.55;24.55;;;;;;;;;;5047831;28;20699;-76
2020/12/06 18:49:10;;;;;;;46.72;25.83;;;;;;;;;;5047584;28;20025;-76
2020/12/06 18:51:36;;;;;;;50.85;25.98;;;;;;;;;;5046845;28;20056;-76
2020/12/06 18:54:02;;;;;;;42.78;23.20;;;;;;;;;;5046063;28;20032;-76
2020/12/06 18:56:28;;;;;;;48.47;25.10;;;;;;;;;;5046475;28;20025;-77
2020/12/06 18:58:54;;;;;;;43.95;23.40;;;;;;;;;;5045011;28;20044;-76
2020/12/06 19:01:25;;;;;;;49.20;25.25;;;;;;;;;;5032796;28;20076;-77
2020/12/06 19:03:52;;;;;;;45.42;25.58;;;;;;;;;;5026163;28;20017;-75
2020/12/06 19:06:18;;;;;;;48.00;26.08;;;;;;;;;;5039994;28;20081;-76
2020/12/06 19:08:44;;;;;;;45.58;25.73;;;;;;;;;;5042355;28;20060;-75
